Time;durP1;ratioP1;P1;durP2;ratioP2;P2;SDS_P1;SDS_P2;PMS_P1;PMS_P2;Temp;Humidity;BMP_temperature;BMP_pressure;BME280_temperature;BME280_humidity;BME280_pressure;Samples;Min_cycle;Max_cycle;Signal;HPM_P1;HPM_P2
2021/12/16 05:10:56;;;;;;;9.25;3.88;;;8.20;99.90;;;;;;6226377;22;20380;-92
2021/12/16 05:14:03;;;;;;;;;;;;;;;;;;;;;
2021/12/16 05:32:57;;;;;;;14.93;4.03;;;8.30;99.90;;;;;;6187334;23;20380;-92
2021/12/16 05:35:32;;;;;;;10.02;4.38;;;8.30;99.90;;;;;;6136968;23;20392;-92
2021/12/16 05:38:13;;;;;;;16.10;4.22;;;8.30;99.90;;;;;;6137651;23;20100;-92
2021/12/16 05:40:49;;;;;;;13.15;4.30;;;8.20;99.90;;;;;;6137307;23;20013;-94
2021/12/16 05:43:28;;;;;;;3.42;2.30;;;8.30;99.90;;;;;;6138396;23;20445;-93
2021/12/16 05:46:03;;;;;;;9.27;3.58;;;8.20;99.90;;;;;;6139750;23;20025;-95
2021/12/16 05:48:45;;;;;;;9.15;3.30;;;8.20;99.90;;;;;;6139079;23;20017;-95
2021/12/16 05:51:26;;;;;;;8.13;3.27;;;8.20;99.90;;;;;;6162588;23;20084;-94
2021/12/16 05:54:05;;;;;;;22.88;4.28;;;8.20;99.90;;;;;;6162843;23;20025;-94
2021/12/16 05:56:48;;;;;;;10.82;3.10;;;8.20;99.90;;;;;;6140894;23;20397;-94
2021/12/16 05:59:28;;;;;;;12.63;4.13;;;8.20;99.90;;;;;;6164930;23;20025;-94
2021/12/16 06:02:05;;;;;;;8.23;3.50;;;8.20;99.90;;;;;;6163440;23;20025;-94
2021/12/16 06:04:44;;;;;;;9.00;3.67;;;8.20;99.90;;;;;;6162635;23;20021;-94
2021/12/16 06:07:27;;;;;;;9.18;3.50;;;8.20;99.90;;;;;;6161569;23;20040;-95
2021/12/16 06:10:12;;;;;;;15.95;4.35;;;8.20;99.90;;;;;;6162724;23;20112;-94
2021/12/16 06:12:53;;;;;;;15.38;4.97;;;8.20;99.90;;;;;;6139933;23;20100;-95
2021/12/16 06:27:13;;;;;;;8.05;3.35;;;8.10;99.90;;;;;;6162189;23;20063;-94
2021/12/16 06:29:47;;;;;;;5.63;3.05;;;8.10;99.90;;;;;;6136395;23;20021;-94
2021/12/16 06:32:22;;;;;;;6.53;2.88;;;8.10;99.90;;;;;;6137639;23;20017;-94
2021/12/16 06:34:56;;;;;;;11.32;3.63;;;8.10;99.90;;;;;;6137536;23;20437;-95
2021/12/16 06:37:37;;;;;;;6.95;2.50;;;8.10;99.90;;;;;;6139704;23;20041;-93
2021/12/16 06:40:20;;;;;;;5.65;2.55;;;8.10;99.90;;;;;;6162459;23;20047;-95
2021/12/16 06:43:12;;;;;;;7.97;2.95;;;8.10;99.90;;;;;;6161595;23;20159;-94
2021/12/16 06:45:51;;;;;;;5.22;2.88;;;8.10;99.90;;;;;;6162092;23;20083;-94
2021/12/16 06:48:30;;;;;;;5.10;2.58;;;8.00;99.90;;;;;;6138165;23;20017;-94
2021/12/16 06:51:16;;;;;;;7.97;2.47;;;8.10;99.90;;;;;;6138295;23;20077;-94
2021/12/16 06:54:03;;;;;;;4.97;2.80;;;8.00;99.90;;;;;;6161492;23;20076;-94
2021/12/16 06:56:53;;;;;;;4.55;2.13;;;8.00;99.90;;;;;;6163150;23;20028;-94
2021/12/16 06:59:38;;;;;;;13.40;3.92;;;8.10;99.90;;;;;;6162267;23;20048;-94
2021/12/16 07:05:19;;;;;;;4.22;2.03;;;8.00;99.90;;;;;;6160784;23;20017;-95
2021/12/16 07:08:01;;;;;;;4.07;2.30;;;8.00;99.90;;;;;;6137385;23;20017;-94
2021/12/16 07:10:38;;;;;;;3.92;2.13;;;8.00;99.90;;;;;;6162113;23;20108;-94
2021/12/16 07:13:19;;;;;;;6.82;2.53;;;8.00;99.90;;;;;;6163044;23;20080;-94
2021/12/16 07:15:51;;;;;;;4.88;3.10;;;8.00;99.90;;;;;;6136938;23;20087;-95
2021/12/16 07:18:32;;;;;;;4.53;2.10;;;8.00;99.90;;;;;;6138243;23;20024;-95
2021/12/16 07:21:13;;;;;;;4.32;2.13;;;8.00;99.90;;;;;;6138037;23;20017;-94
2021/12/16 07:23:49;;;;;;;8.13;2.75;;;8.00;99.90;;;;;;6136917;23;20017;-93
2021/12/16 07:26:19;;;;;;;3.53;2.08;;;8.00;99.90;;;;;;6137578;23;20108;-93
2021/12/16 07:29:27;;;;;;;5.43;2.35;;;8.00;99.90;;;;;;6163163;23;20031;-94
2021/12/16 07:32:21;;;;;;;9.80;3.25;;;8.00;99.90;;;;;;6140438;23;20009;-94
2021/12/16 07:34:57;;;;;;;6.07;2.45;;;8.00;99.90;;;;;;6162038;23;20040;-94
2021/12/16 07:37:33;;;;;;;9.38;4.07;;;8.00;99.90;;;;;;6137905;23;20468;-93
2021/12/16 07:40:11;;;;;;;3.83;2.53;;;8.00;99.90;;;;;;6161213;23;20017;-93
2021/12/16 07:42:59;;;;;;;5.05;2.88;;;8.00;99.90;;;;;;6136746;23;20025;-94
2021/12/16 07:45:43;;;;;;;5.40;3.13;;;7.90;99.90;;;;;;6162296;23;20013;-94
2021/12/16 07:48:15;;;;;;;6.82;3.35;;;7.90;99.90;;;;;;6161703;23;20013;-93
2021/12/16 07:50:52;;;;;;;7.72;3.53;;;8.00;99.90;;;;;;6161593;23;20017;-94
2021/12/16 07:53:28;;;;;;;5.35;3.15;;;7.90;99.90;;;;;;6160628;23;20052;-93
2021/12/16 07:56:04;;;;;;;8.02;3.80;;;7.90;99.90;;;;;;6137952;23;20021;-94
2021/12/16 07:58:37;;;;;;;5.60;3.67;;;7.90;99.90;;;;;;6162300;23;20021;-92
2021/12/16 08:01:13;;;;;;;7.55;3.95;;;7.90;99.90;;;;;;6160718;23;20021;-92
2021/12/16 08:03:47;;;;;;;10.45;4.72;;;7.90;99.90;;;;;;6137179;23;20017;-93
2021/12/16 08:06:26;;;;;;;6.10;3.85;;;7.90;99.90;;;;;;6160750;23;20017;-93
2021/12/16 08:09:07;;;;;;;6.85;3.80;;;7.90;99.90;;;;;;6160976;23;20017;-93
2021/12/16 08:11:45;;;;;;;9.20;4.07;;;7.90;99.90;;;;;;6160646;23;20017;-92
2021/12/16 08:14:19;;;;;;;7.10;4.10;;;7.90;99.90;;;;;;6138397;23;20453;-93
2021/12/16 08:16:55;;;;;;;8.63;4.13;;;7.80;99.90;;;;;;6186055;23;20410;-92
2021/12/16 08:19:27;;;;;;;9.23;4.38;;;7.90;99.90;;;;;;6137057;23;20021;-92
2021/12/16 08:22:02;;;;;;;11.77;4.25;;;7.90;99.90;;;;;;6160178;23;20020;-94
2021/12/16 08:24:41;;;;;;;8.45;4.38;;;7.90;99.90;;;;;;6162918;23;20445;-93
2021/12/16 08:27:13;;;;;;;7.72;4.30;;;7.90;99.90;;;;;;6137762;23;20433;-92
2021/12/16 08:29:46;;;;;;;10.43;5.10;;;7.80;99.90;;;;;;6137026;23;20017;-93
2021/12/16 08:32:24;;;;;;;7.40;4.13;;;7.80;99.90;;;;;;6160672;23;20024;-93
2021/12/16 08:35:00;;;;;;;9.45;5.53;;;7.80;99.90;;;;;;6162884;23;20021;-92
2021/12/16 08:37:35;;;;;;;11.00;4.50;;;7.80;99.90;;;;;;6162010;23;20043;-92
2021/12/16 08:40:15;;;;;;;7.07;3.78;;;7.80;99.90;;;;;;6165270;23;20023;-92
2021/12/16 08:42:50;;;;;;;8.55;4.45;;;7.80;99.90;;;;;;6163119;23;20104;-93
2021/12/16 08:45:32;;;;;;;10.52;4.80;;;7.80;99.90;;;;;;6160347;23;20028;-92
2021/12/16 08:48:07;;;;;;;13.30;5.78;;;7.80;99.90;;;;;;6136015;23;20112;-93
2021/12/16 08:50:42;;;;;;;10.75;4.72;;;7.80;99.90;;;;;;6137621;23;20098;-93
2021/12/16 08:53:18;;;;;;;5.95;4.57;;;7.80;99.90;;;;;;6136835;23;20021;-93
2021/12/16 08:59:25;;;;;;;7.82;3.17;;;7.80;99.90;;;;;;6156144;23;20100;-94
2021/12/16 09:02:04;;;;;;;7.28;3.92;;;7.80;99.90;;;;;;6160116;23;20017;-93
2021/12/16 09:04:44;;;;;;;7.55;4.18;;;7.80;99.90;;;;;;6137481;23;20068;-93
2021/12/16 09:07:27;;;;;;;6.80;4.15;;;7.80;99.90;;;;;;6137576;23;20013;-93
2021/12/16 09:10:14;;;;;;;6.10;3.00;;;7.80;99.90;;;;;;6138108;23;20452;-93
2021/12/16 09:13:04;;;;;;;9.35;3.33;;;7.80;99.90;;;;;;6137210;23;20021;-93
2021/12/16 09:15:56;;;;;;;5.65;3.00;;;7.80;99.90;;;;;;6159601;23;20037;-93
2021/12/16 09:18:34;;;;;;;7.32;3.78;;;7.80;99.90;;;;;;6162644;23;20013;-93
2021/12/16 09:21:12;;;;;;;8.30;3.15;;;7.80;99.90;;;;;;6139254;23;20025;-93
2021/12/16 09:23:54;;;;;;;6.47;3.67;;;7.80;99.90;;;;;;6163976;23;20312;-93
2021/12/16 09:26:29;;;;;;;4.85;3.20;;;7.80;99.90;;;;;;6138877;23;20109;-92
2021/12/16 09:29:07;;;;;;;5.55;3.67;;;7.80;99.90;;;;;;6138789;23;20028;-93
2021/12/16 09:31:53;;;;;;;10.93;3.83;;;7.80;99.90;;;;;;6161665;23;20047;-93
2021/12/16 09:34:33;;;;;;;9.55;4.43;;;7.80;99.90;;;;;;6162056;23;20107;-94
2021/12/16 09:37:11;;;;;;;14.43;4.43;;;7.90;99.90;;;;;;6139187;23;20507;-93
2021/12/16 09:39:46;;;;;;;12.85;5.45;;;7.90;99.90;;;;;;6138700;23;20467;-93
2021/12/16 09:42:39;;;;;;;12.43;4.60;;;8.00;99.90;;;;;;6164629;23;20017;-93
2021/12/16 09:45:21;;;;;;;20.85;5.75;;;8.10;99.90;;;;;;6161904;23;20021;-93
2021/12/16 09:47:57;;;;;;;12.93;5.72;;;8.20;99.90;;;;;;6138800;23;20120;-93
2021/12/16 09:50:43;;;;;;;12.13;5.65;;;8.30;99.90;;;;;;6161653;23;20021;-93
2021/12/16 09:53:30;;;;;;;15.57;5.22;;;8.50;99.90;;;;;;6140365;23;20017;-93
2021/12/16 09:56:27;;;;;;;11.82;5.70;;;8.60;99.90;;;;;;6161144;23;20025;-93
2021/12/16 09:59:55;;;;;;;18.95;4.35;;;8.70;99.90;;;;;;6173774;23;20108;-93
2021/12/16 10:02:31;;;;;;;17.55;8.18;;;8.70;99.90;;;;;;6161124;23;20017;-94
2021/12/16 10:05:09;;;;;;;10.15;5.10;;;8.80;99.90;;;;;;6162375;23;20017;-93
2021/12/16 10:07:45;;;;;;;19.10;6.13;;;9.00;99.90;;;;;;6162256;23;20017;-92
2021/12/16 10:10:56;;;;;;;24.63;6.65;;;9.00;99.90;;;;;;6138965;23;20045;-93
2021/12/16 10:14:00;;;;;;;24.85;5.43;;;9.10;99.90;;;;;;6162865;23;20052;-93
2021/12/16 10:19:31;;;;;;;22.90;7.40;;;9.00;99.90;;;;;;6161058;23;20024;-93
2021/12/16 10:22:32;;;;;;;17.20;6.18;;;8.90;99.90;;;;;;6161240;23;20370;-92
2021/12/16 10:25:28;;;;;;;20.95;6.05;;;8.90;99.90;;;;;;6138259;23;20017;-92
2021/12/16 10:28:56;;;;;;;19.00;5.65;;;8.90;99.90;;;;;;6135262;23;20029;-93
2021/12/16 10:32:03;;;;;;;18.42;7.05;;;8.90;99.90;;;;;;6093548;23;20040;-93
2021/12/16 10:35:08;;;;;;;14.63;7.00;;;9.10;99.90;;;;;;6141240;23;20013;-93
2021/12/16 10:37:57;;;;;;;20.17;7.57;;;9.10;99.90;;;;;;6138746;23;20017;-93
2021/12/16 10:40:53;;;;;;;15.40;6.43;;;9.20;99.90;;;;;;6138950;23;20017;-92
2021/12/16 10:43:44;;;;;;;13.02;5.38;;;9.10;99.90;;;;;;6139298;23;20104;-92
2021/12/16 10:46:40;;;;;;;15.40;6.70;;;9.00;99.90;;;;;;6138923;23;20020;-93
2021/12/16 10:49:56;;;;;;;12.80;6.93;;;9.20;99.90;;;;;;6169301;23;20005;-93
2021/12/16 10:52:45;;;;;;;18.33;7.53;;;9.30;99.90;;;;;;6164055;23;20020;-93
2021/12/16 10:55:40;;;;;;;13.57;5.43;;;9.30;99.90;;;;;;6162403;23;20111;-92
2021/12/16 10:58:16;;;;;;;15.13;5.80;;;9.20;99.90;;;;;;6159118;23;20412;-93
2021/12/16 11:01:03;;;;;;;18.50;5.60;;;9.20;99.90;;;;;;6161190;23;20112;-93
2021/12/16 11:03:54;;;;;;;24.55;6.90;;;9.30;99.90;;;;;;6138606;23;20028;-93
2021/12/16 11:06:44;;;;;;;16.67;7.05;;;9.30;99.90;;;;;;6138169;23;20068;-93
2021/12/16 11:09:39;;;;;;;16.05;7.60;;;9.20;99.90;;;;;;6138623;23;20017;-93
2021/12/16 11:12:25;;;;;;;15.57;6.43;;;9.30;99.90;;;;;;6162423;23;20009;-92
2021/12/16 11:15:13;;;;;;;21.33;6.05;;;9.20;99.90;;;;;;6161166;23;20122;-92
2021/12/16 11:17:49;;;;;;;12.00;5.93;;;9.20;99.90;;;;;;6160669;23;20104;-92
2021/12/16 11:20:36;;;;;;;22.95;6.90;;;9.20;99.90;;;;;;6160352;23;20028;-94
2021/12/16 11:23:27;;;;;;;23.13;7.25;;;9.30;99.90;;;;;;6160732;23;20021;-93
2021/12/16 11:26:19;;;;;;;20.40;7.60;;;9.30;99.90;;;;;;6161840;23;20017;-93
2021/12/16 11:29:05;;;;;;;22.80;7.68;;;9.40;99.90;;;;;;6161771;23;20099;-93
2021/12/16 11:31:51;;;;;;;15.27;6.82;;;9.40;99.90;;;;;;6161206;23;20071;-93
2021/12/16 11:34:38;;;;;;;17.55;8.80;;;9.30;99.90;;;;;;6161213;23;20390;-93
2021/12/16 11:37:22;;;;;;;18.77;6.47;;;9.40;99.90;;;;;;6161743;23;20025;-93
2021/12/16 11:40:38;;;;;;;13.30;6.78;;;9.30;99.90;;;;;;6168925;23;20120;-93
2021/12/16 11:43:36;;;;;;;17.45;6.50;;;9.40;99.90;;;;;;6138190;23;20027;-94
2021/12/16 11:46:39;;;;;;;19.15;8.68;;;9.40;99.90;;;;;;6161170;23;20344;-94
2021/12/16 11:52:59;;;;;;;21.00;7.53;;;9.40;99.90;;;;;;6216752;23;20023;-93
2021/12/16 11:55:41;;;;;;;22.13;6.60;;;9.40;99.90;;;;;;6193260;23;20016;-93
2021/12/16 11:58:16;;;;;;;24.33;8.00;;;9.40;99.90;;;;;;6165993;23;20020;-92
2021/12/16 12:00:59;;;;;;;24.85;7.15;;;9.50;99.90;;;;;;6191722;23;20524;-93
2021/12/16 12:03:37;;;;;;;25.25;7.47;;;9.50;99.90;;;;;;6190930;23;20020;-93
2021/12/16 12:06:20;;;;;;;16.00;7.38;;;9.40;99.90;;;;;;6190000;23;20016;-94
2021/12/16 12:09:01;;;;;;;20.42;6.82;;;9.60;99.90;;;;;;6189929;23;20036;-93
2021/12/16 12:12:02;;;;;;;16.30;7.28;;;9.50;99.90;;;;;;6167695;23;20071;-93
2021/12/16 12:14:37;;;;;;;27.52;7.70;;;9.60;99.90;;;;;;6166865;23;20028;-93
2021/12/16 12:17:20;;;;;;;20.95;8.88;;;9.70;99.90;;;;;;6191114;23;20020;-93
2021/12/16 12:19:55;;;;;;;13.13;7.38;;;9.70;99.90;;;;;;6189949;23;20476;-93
2021/12/16 12:22:36;;;;;;;18.08;7.93;;;9.50;99.90;;;;;;6190895;23;20467;-93
2021/12/16 12:25:20;;;;;;;17.38;8.07;;;9.50;99.90;;;;;;6166904;23;20016;-93
2021/12/16 12:28:02;;;;;;;22.73;7.20;;;9.60;99.90;;;;;;6193383;23;20013;-93
2021/12/16 12:30:41;;;;;;;35.35;10.75;;;9.60;99.90;;;;;;6190251;23;20025;-93
2021/12/16 12:33:15;;;;;;;21.25;8.15;;;9.70;99.90;;;;;;6167021;23;20472;-93
2021/12/16 12:35:52;;;;;;;23.00;8.52;;;9.70;99.90;;;;;;6166500;23;20400;-92
2021/12/16 12:38:26;;;;;;;19.40;8.25;;;9.70;99.90;;;;;;6167081;23;20032;-93
2021/12/16 12:41:07;;;;;;;21.23;8.52;;;9.70;99.90;;;;;;6167916;23;20076;-92
2021/12/16 12:43:39;;;;;;;22.45;9.32;;;9.80;99.90;;;;;;6191202;23;20040;-93
2021/12/16 12:46:13;;;;;;;21.02;9.88;;;9.80;99.90;;;;;;6166789;23;20020;-92
2021/12/16 12:48:59;;;;;;;20.88;8.55;;;9.80;99.90;;;;;;6167074;23;20020;-92
2021/12/16 12:51:32;;;;;;;15.93;7.60;;;9.80;99.90;;;;;;6166143;23;20468;-92
2021/12/16 12:54:28;;;;;;;17.30;8.30;;;9.80;99.90;;;;;;6166770;23;20440;-93
2021/12/16 12:57:16;;;;;;;30.45;8.10;;;9.80;99.90;;;;;;6190479;23;20107;-92
2021/12/16 12:59:47;;;;;;;17.58;8.48;;;9.80;99.90;;;;;;6165900;23;20024;-93
2021/12/16 13:02:28;;;;;;;22.60;9.00;;;9.90;99.90;;;;;;6167734;23;20024;-93
2021/12/16 13:05:16;;;;;;;27.75;8.23;;;9.90;99.90;;;;;;6191709;23;20017;-93
2021/12/16 13:07:58;;;;;;;19.52;8.23;;;9.80;99.90;;;;;;6166411;23;20023;-94
2021/12/16 13:10:39;;;;;;;16.02;8.55;;;9.80;99.90;;;;;;6166420;23;20020;-92
2021/12/16 13:16:40;;;;;;;20.90;9.32;;;9.90;99.90;;;;;;6190894;23;20020;-92
2021/12/16 13:29:10;;;;;;;19.00;8.13;;;9.90;99.90;;;;;;6190421;23;20021;-93
2021/12/16 13:35:22;;;;;;;23.95;8.30;;;9.90;99.90;;;;;;6176481;23;20029;-93
2021/12/16 13:37:59;;;;;;;15.93;7.90;;;9.90;99.90;;;;;;6190793;23;20024;-92
2021/12/16 13:40:39;;;;;;;17.45;7.70;;;9.90;99.90;;;;;;6165461;23;20079;-93
2021/12/16 13:43:20;;;;;;;20.90;8.18;;;9.90;99.90;;;;;;6167172;23;20344;-92
2021/12/16 13:58:48;;;;;;;18.42;6.82;;;10.00;99.90;;;;;;6216206;23;20012;-93
2021/12/16 14:07:51;;;;;;;21.70;7.93;;;10.10;99.90;;;;;;6190965;23;20017;-92
2021/12/16 14:10:47;;;;;;;15.98;7.57;;;10.00;99.90;;;;;;6167949;23;20067;-93
2021/12/16 14:17:08;;;;;;;24.42;7.70;;;10.00;99.90;;;;;;6190822;23;20024;-93
2021/12/16 14:23:12;;;;;;;18.67;7.57;;;10.00;99.90;;;;;;6190822;23;20024;-92
2021/12/16 14:26:13;;;;;;;14.13;6.57;;;10.00;99.90;;;;;;6194169;23;20012;-93
2021/12/16 14:35:06;;;;;;;9.20;5.22;;;10.00;99.90;;;;;;6191562;23;20066;-94
2021/12/16 14:38:03;;;;;;;;;;;9.90;99.90;;;;;;6167186;23;20021;-93
2021/12/16 14:41:07;;;;;;;20.15;6.32;;;9.90;99.90;;;;;;6191454;23;19924;-92
2021/12/16 14:43:56;;;;;;;;;;;9.90;99.90;;;;;;6168313;23;20341;-93
2021/12/16 14:46:26;;;;;;;13.73;6.20;;;9.90;99.90;;;;;;6191734;23;20252;-92
2021/12/16 14:49:51;;;;;;;12.68;6.57;;;9.90;99.90;;;;;;6191552;23;20065;-94
2021/12/16 16:53:03;;;;;;;10.63;4.90;;;9.70;99.90;;;;;;6230497;22;20082;-90
2021/12/16 16:55:35;;;;;;;8.77;4.75;;;9.60;99.90;;;;;;6220761;23;20078;-91
2021/12/16 16:58:49;;;;;;;13.10;5.10;;;9.60;99.90;;;;;;6195215;23;20447;-92
2021/12/16 17:01:24;;;;;;;7.78;4.57;;;9.60;99.90;;;;;;6200289;23;20025;-91
2021/12/16 17:03:52;;;;;;;20.48;6.95;;;9.60;99.90;;;;;;6190107;23;20071;-90
2021/12/16 17:10:47;;;;;;;6.90;4.93;;;9.60;99.90;;;;;;6216412;23;20441;-92
2021/12/16 17:13:43;;;;;;;11.70;5.53;;;9.60;99.90;;;;;;6165563;23;20020;-92
2021/12/16 17:19:03;;;;;;;164.95;62.72;;;9.60;99.90;;;;;;6190200;23;20017;-91
2021/12/16 17:21:38;;;;;;;32.28;16.65;;;9.60;99.90;;;;;;6190449;23;20318;-92
2021/12/16 17:24:12;;;;;;;21.63;11.88;;;9.60;99.90;;;;;;6190078;23;20020;-91
2021/12/16 17:26:52;;;;;;;58.85;30.48;;;9.60;99.90;;;;;;6190250;23;20027;-91
2021/12/16 17:29:37;;;;;;;15.50;9.48;;;9.50;99.90;;;;;;6191695;23;20016;-90
2021/12/16 17:32:15;;;;;;;13.57;8.30;;;9.50;99.90;;;;;;6191370;23;20013;-91
2021/12/16 17:34:58;;;;;;;21.17;10.23;;;9.50;99.90;;;;;;6166798;23;20059;-90
2021/12/16 17:37:34;;;;;;;14.88;9.20;;;9.50;99.90;;;;;;6189517;23;20067;-90
2021/12/16 17:40:17;;;;;;;16.00;9.23;;;9.50;99.90;;;;;;6190060;23;20017;-92
2021/12/16 17:42:59;;;;;;;11.48;6.93;;;9.50;99.90;;;;;;6167120;23;20048;-92
2021/12/16 17:45:41;;;;;;;19.20;9.95;;;9.50;99.90;;;;;;6166162;23;20024;-90
2021/12/16 17:48:25;;;;;;;14.15;6.40;;;9.50;99.90;;;;;;6186922;23;20023;-90
2021/12/16 17:51:11;;;;;;;18.00;7.80;;;9.50;99.90;;;;;;6167254;23;20071;-90
2021/12/16 18:06:41;;;;;;;20.58;9.20;;;9.40;99.90;;;;;;6250119;23;20019;-94
2021/12/16 18:12:51;;;;;;;15.75;10.35;;;9.40;99.90;;;;;;6217618;23;20099;-94
2021/12/16 18:15:31;;;;;;;11.52;7.35;;;9.50;99.90;;;;;;6191701;23;20023;-93
2021/12/16 18:18:10;;;;;;;17.17;9.25;;;9.40;99.90;;;;;;6191682;23;20019;-91
2021/12/16 18:21:00;;;;;;;;;;;;;;;;;;;;;
2021/12/16 18:23:48;;;;;;;15.05;7.85;;;9.50;99.90;;;;;;6193939;23;20032;-91
2021/12/16 18:26:18;;;;;;;13.90;7.93;;;9.40;99.90;;;;;;6189735;23;20522;-91
2021/12/16 18:29:21;;;;;;;10.98;6.90;;;9.50;99.90;;;;;;6168112;23;20020;-91
2021/12/16 18:32:07;;;;;;;18.23;9.32;;;9.50;99.90;;;;;;6168552;23;20052;-91
2021/12/16 18:42:57;;;;;;;13.38;6.35;;;9.40;99.90;;;;;;6230878;22;20047;-92
2021/12/16 18:45:27;;;;;;;13.73;8.27;;;9.40;99.90;;;;;;6196542;23;20351;-94
2021/12/16 18:54:57;;;;;;;14.57;8.57;;;9.40;99.90;;;;;;6152966;23;20017;-92
2021/12/16 18:58:02;;;;;;;25.02;11.65;;;9.40;99.90;;;;;;6189123;23;20021;-93
2021/12/16 19:01:18;;;;;;;15.63;7.55;;;9.40;99.90;;;;;;6192681;23;20527;-93
2021/12/16 19:03:48;;;;;;;11.85;6.75;;;9.40;99.90;;;;;;6217830;23;20043;-93
2021/12/16 19:06:22;;;;;;;25.80;10.27;;;9.40;99.90;;;;;;6191448;23;20096;-93
2021/12/16 19:08:53;;;;;;;15.45;8.13;;;9.40;99.90;;;;;;6217895;23;20016;-93
2021/12/16 19:11:44;;;;;;;16.67;10.15;;;9.40;99.90;;;;;;6192908;23;20013;-93
2021/12/16 19:14:27;;;;;;;20.90;11.98;;;9.40;99.90;;;;;;6191589;23;20013;-93
2021/12/16 19:17:07;;;;;;;13.85;7.18;;;9.40;99.90;;;;;;6168056;23;20020;-93
2021/12/16 19:19:39;;;;;;;18.73;8.80;;;9.40;99.90;;;;;;6191794;23;20031;-92
2021/12/16 19:22:17;;;;;;;26.58;10.07;;;9.40;99.90;;;;;;6192366;23;20044;-92
2021/12/16 19:25:08;;;;;;;10.33;6.47;;;9.40;99.90;;;;;;6166682;23;20025;-92
2021/12/16 19:28:25;;;;;;;;;;;;;;;;;;;;;
2021/12/16 19:31:40;;;;;;;8.10;5.13;;;9.30;99.90;;;;;;6216797;23;20429;-93
2021/12/16 19:34:21;;;;;;;10.60;5.32;;;9.40;99.90;;;;;;6189544;23;20021;-92
2021/12/16 19:37:17;;;;;;;14.90;7.97;;;9.30;99.90;;;;;;6166202;23;20024;-93
2021/12/16 19:40:25;;;;;;;18.83;10.15;;;9.40;99.90;;;;;;6135540;23;20024;-90
2021/12/16 19:43:10;;;;;;;21.90;10.77;;;9.40;99.90;;;;;;6194483;23;20031;-90
2021/12/16 19:46:28;;;;;;;;;;;;;;;;;;;;;
2021/12/16 19:49:19;;;;;;;21.67;10.43;;;9.30;99.90;;;;;;6189805;23;20099;-93
2021/12/16 19:52:30;;;;;;;15.57;8.07;;;9.30;99.90;;;;;;6130163;23;20029;-93
2021/12/16 19:54:59;;;;;;;59.60;22.77;;;9.30;99.90;;;;;;6153662;23;20450;-93
2021/12/16 19:57:34;;;;;;;15.15;8.18;;;9.30;99.90;;;;;;6129059;23;20017;-93
2021/12/16 20:01:04;;;;;;;36.03;13.20;;;9.30;99.90;;;;;;6081329;23;20034;-93
2021/12/16 20:03:41;;;;;;;16.38;7.65;;;9.30;99.90;;;;;;6095550;23;20026;-93
2021/12/16 20:06:13;;;;;;;15.00;7.65;;;9.30;99.90;;;;;;6048035;23;20022;-90
2021/12/16 20:08:53;;;;;;;12.45;6.45;;;9.30;99.90;;;;;;6072014;23;20082;-92
2021/12/16 20:11:50;;;;;;;19.65;10.38;;;9.30;99.90;;;;;;6071539;23;20026;-93
2021/12/16 20:14:29;;;;;;;14.02;7.70;;;9.30;99.90;;;;;;6074168;23;20018;-92
2021/12/16 20:17:20;;;;;;;20.20;8.40;;;9.30;99.90;;;;;;6071460;23;20486;-92
2021/12/16 20:20:00;;;;;;;16.13;8.15;;;9.30;99.90;;;;;;6072605;23;20454;-91
2021/12/16 20:23:32;;;;;;;19.50;9.40;;;9.30;99.90;;;;;;6056784;23;20082;-93
2021/12/16 20:32:17;;;;;;;15.82;8.57;;;9.20;99.90;;;;;;6125073;23;20013;-92
2021/12/16 20:35:04;;;;;;;;;;;;;;;;;;;;;
2021/12/16 20:37:36;;;;;;;17.35;7.72;;;9.10;99.90;;;;;;6167027;23;20047;-92
2021/12/16 20:40:25;;;;;;;20.92;7.97;;;9.20;99.90;;;;;;6188950;23;20047;-90
2021/12/16 21:11:04;;;;;;;45.08;22.48;;;9.20;99.90;;;;;;6214804;22;20090;-90
2021/12/16 21:13:49;;;;;;;;;;;9.20;99.90;;;;;;6189001;23;20062;-92
2021/12/16 21:17:12;;;;;;;;;;;;;;;;;;;;;
2021/12/16 21:20:20;;;;;;;14.35;6.30;;;9.20;99.90;;;;;;6191222;23;20017;-94
2021/12/16 21:23:20;;;;;;;13.38;6.35;;;9.20;99.90;;;;;;6170517;23;20031;-94
2021/12/16 21:40:22;;;;;;;17.08;8.35;;;9.30;99.90;;;;;;5928406;24;20062;-93
2021/12/16 21:43:08;;;;;;;12.80;6.55;;;9.20;99.90;;;;;;6061631;23;20109;-93
2021/12/16 21:45:38;;;;;;;12.68;7.30;;;9.20;99.90;;;;;;6072955;23;20018;-93
2021/12/16 21:48:10;;;;;;;13.10;6.78;;;9.20;99.90;;;;;;6073324;23;20022;-93
2021/12/16 21:50:45;;;;;;;;;;;9.20;99.90;;;;;;6073044;23;20105;-94
2021/12/16 21:53:15;;;;;;;11.88;5.65;;;9.20;99.90;;;;;;6073791;23;19917;-92
2021/12/16 21:55:44;;;;;;;14.82;7.07;;;9.20;99.90;;;;;;6072895;23;20018;-92
2021/12/16 21:58:14;;;;;;;23.42;8.63;;;9.20;99.90;;;;;;6073260;23;20387;-93
2021/12/16 22:00:56;;;;;;;18.20;7.65;;;9.20;99.90;;;;;;6103635;23;20024;-92
2021/12/16 22:03:27;;;;;;;13.15;7.05;;;9.20;99.90;;;;;;6191774;23;20075;-91
2021/12/16 22:05:56;;;;;;;16.38;6.82;;;9.20;99.90;;;;;;6217024;23;20023;-91
2021/12/16 22:08:24;;;;;;;17.55;8.15;;;9.20;99.90;;;;;;6217092;23;20055;-92
2021/12/16 22:10:51;;;;;;;12.93;7.00;;;9.10;99.90;;;;;;6204158;23;20017;-92
2021/12/16 22:13:19;;;;;;;24.85;9.00;;;9.20;99.90;;;;;;6186201;23;20075;-92
2021/12/16 22:15:47;;;;;;;19.05;8.23;;;9.20;99.90;;;;;;6186261;23;20045;-92
2021/12/16 22:18:17;;;;;;;12.93;6.30;;;9.10;99.90;;;;;;6186590;23;20048;-92
2021/12/16 22:20:46;;;;;;;10.00;5.65;;;9.10;99.90;;;;;;6186228;23;20403;-92
2021/12/16 22:23:17;;;;;;;19.15;9.40;;;9.10;99.90;;;;;;6188037;23;20433;-91
2021/12/16 22:25:45;;;;;;;33.60;9.65;;;9.10;99.90;;;;;;6186247;23;20032;-92
2021/12/16 22:28:12;;;;;;;22.52;8.35;;;9.10;99.90;;;;;;6186482;23;20104;-92
2021/12/16 22:30:39;;;;;;;20.88;8.90;;;9.10;99.90;;;;;;6186140;23;20025;-92
2021/12/16 22:33:09;;;;;;;13.93;6.72;;;9.10;99.90;;;;;;6186153;23;20087;-91
2021/12/16 22:35:38;;;;;;;20.15;9.35;;;9.10;99.90;;;;;;6186230;23;20021;-92
2021/12/16 22:38:05;;;;;;;15.95;6.50;;;9.10;99.90;;;;;;6185657;23;20047;-92
2021/12/16 22:40:37;;;;;;;16.35;7.95;;;9.20;99.90;;;;;;6186203;23;20025;-92
2021/12/16 22:43:06;;;;;;;15.27;7.20;;;9.10;99.90;;;;;;6186407;23;20025;-92
2021/12/16 22:45:33;;;;;;;15.80;7.35;;;9.10;99.90;;;;;;6185628;23;20021;-91
2021/12/16 22:48:00;;;;;;;11.82;6.15;;;9.10;99.90;;;;;;6185522;23;20083;-92
2021/12/16 22:50:29;;;;;;;10.13;5.72;;;9.10;99.90;;;;;;6186873;23;20379;-91
2021/12/16 22:52:56;;;;;;;17.45;6.78;;;9.10;99.90;;;;;;6186024;23;20017;-91
2021/12/16 22:55:24;;;;;;;11.50;5.75;;;9.10;99.90;;;;;;6185913;23;20017;-91
2021/12/16 22:57:51;;;;;;;20.73;6.82;;;9.10;99.90;;;;;;6185650;23;20029;-92
2021/12/16 23:00:27;;;;;;;12.48;6.65;;;9.10;99.90;;;;;;6187622;23;20025;-91
2021/12/16 23:02:56;;;;;;;14.98;6.70;;;9.10;99.90;;;;;;6192011;23;20030;-91
2021/12/16 23:05:25;;;;;;;14.90;6.43;;;9.10;99.90;;;;;;6190374;23;20024;-91
2021/12/16 23:07:52;;;;;;;12.52;6.28;;;9.10;99.90;;;;;;6165777;23;20051;-90
2021/12/16 23:10:20;;;;;;;16.95;6.93;;;9.10;99.90;;;;;;6190540;23;20334;-91
2021/12/16 23:12:51;;;;;;;12.05;5.85;;;9.10;99.90;;;;;;6190787;23;20016;-92
2021/12/16 23:16:03;;;;;;;19.50;6.78;;;9.10;99.90;;;;;;6191524;23;20349;-91
2021/12/16 23:23:53;;;;;;;16.15;7.13;;;9.10;99.90;;;;;;6190277;23;20049;-92
2021/12/16 23:26:20;;;;;;;12.35;6.38;;;9.10;99.90;;;;;;6190226;23;20021;-91
2021/12/16 23:28:47;;;;;;;13.77;5.85;;;9.10;99.90;;;;;;6190084;23;20103;-91
2021/12/16 23:31:14;;;;;;;14.05;5.53;;;9.10;99.90;;;;;;6216739;23;20059;-90
2021/12/16 23:33:42;;;;;;;13.77;6.75;;;9.10;99.90;;;;;;6190272;23;20075;-91
2021/12/16 23:36:09;;;;;;;11.20;5.22;;;9.10;99.90;;;;;;6165802;23;20107;-91
2021/12/16 23:41:23;;;;;;;13.95;7.40;;;9.10;99.90;;;;;;6190589;23;20100;-91
2021/12/16 23:54:18;;;;;;;11.13;5.72;;;9.10;99.90;;;;;;6190215;23;20020;-91
2021/12/16 23:56:48;;;;;;;17.52;6.03;;;9.10;99.90;;;;;;6165186;23;20044;-91
2021/12/16 23:59:18;;;;;;;14.93;6.00;;;9.10;99.90;;;;;;6215388;23;20023;-91
